• Join FlightAware (Why Join?)
  • Login
  • US Flag 
04:36AM EDT


 

Airport Tracker/Info


-or-


 

Live Flight TrackerFlight Track Log ✈ BJS542 ✈ 01-May-2013 ✈ KBCT - KLAL

Flight Track Log - Related Links

Times and Time Zones

All times are in EDT time to prevent confusion due to time zone crossing. See the BJS542 flight status page for this flight to view local times or setup timezone preferences in your user account.

Time Position Orientation Groundspeed Altitude Reporting Facility
EDT Latitude Longitude Course Direction KTS MPH feet Rate Location/Type
11:19AM 26.4856 -80.0806 343° North 236 272 7,800  Level Miami Center
11:20AM 26.5300 -80.1539 304° West 292 336 10,000 1,920 Climbing Miami Center
11:21AM 26.5547 -80.2544 285° West 323 372 11,700 2,340 Climbing Miami Center
11:22AM 26.5900 -80.3531 292° West 341 392 14,700 2,160 Climbing Miami Center
11:23AM 26.6653 -80.4367 315° West 362 417 16,100 600 Climbing Miami Center
11:24AM 26.6242 -80.5079 282° West  Level FlightAware Approximate
11:24AM 26.7403 -80.5272 313° West 387 445 16,000  Level Miami Center
11:25AM 26.8092 -80.6061 314° West 393 452 16,000  Level Miami Center
11:26AM 26.8864 -80.6950 314° West 393 452 16,000  Level Miami Center
11:27AM 26.9672 -80.7931 313° West 393 452 16,000  Level Miami Center
11:28AM 27.0419 -80.8819 313° West 393 452 16,000  Level Miami Center
11:29AM 27.1189 -80.9708 314° West 393 452 16,000  Level Miami Center
11:30AM 27.1875 -81.0525 313° West 393 452 16,000  Level Miami Center
11:31AM 27.2622 -81.1417 313° West 393 452 16,000 -420 Level Miami Center
11:32AM 27.3447 -81.2406 313° West 393 452 15,200 -1,200 Descending Miami Center
11:33AM 27.4192 -81.3278 314° West 388 447 13,700 -1,500 Descending Miami Center
11:34AM 27.4856 -81.4122 312° West 375 432 12,200 -1,500 Descending Miami Center
11:35AM 27.5419 -81.4775 314° West 345 397 10,700 -1,500 Descending Miami Center
11:36AM 27.5983 -81.5431 314° West 308 354 9,300 -1,800 Descending Miami Center
11:37AM 27.6650 -81.6044 321° Northwest 289 333 7,200 -1,920 Descending Miami Center
11:38AM 27.7258 -81.6608 321° Northwest 284 327 5,500 -1,620 Descending Miami Center
11:39AM 27.7844 -81.7175 319° Northwest 278 320 4,000 -1,200 Descending Miami Center
11:40AM 27.8342 -81.7900 308° West 278 320 3,200 -600 Descending Miami Center
11:41AM 27.8819 -81.8578 309° West 283 326 2,800 -600 Descending Miami Center
11:42AM 27.9000 -81.8833 309° West 271 312 2,500 -960 Descending Tampa TRACON
11:43AM 27.9500 -81.9333 319° Northwest 256 295 1,700 -900 Descending Tampa TRACON
11:44AM 27.9833 -81.9833 307° West 180 207 800 5,040 Descending Tampa TRACON
11:45AM 28.0794 -82.1111 310° West 275 316 16,000 4,080 Climbing Miami Center
11:47AM 28.0794 -82.1111 348° North 275 316 16,000  Level Miami Center
11:49AM 28.0080 -82.0409 139° Southeast  Level FlightAware Approximate
11:56AM 27.9833 -82.0167 139° Southeast  Level FlightAware Approximate
11:57AM 27.9889 -82.0186 139° Southeast  Level Estimated
11:58AM 27.9833 -82.0167 139° Southeast  Level FlightAware Approximate
11:59AM 27.9889 -82.0186 139° Southeast  Level Estimated
12:00PM 27.9833 -82.0167 139° Southeast  Level FlightAware Approximate
12:01PM 27.9889 -82.0186 139° Southeast  Level Estimated